createdAt,value
2024-05-09T00:00:18.188Z,102197.59
2024-05-09T00:01:24.032Z,102190.78
2024-05-09T00:02:25.880Z,102194.44
2024-05-09T00:03:27.674Z,102188.50
2024-05-09T00:04:29.475Z,102190.22
2024-05-09T00:05:31.326Z,102187.66
2024-05-09T00:06:33.087Z,102192.41
2024-05-09T00:07:35.804Z,102188.50
2024-05-09T00:08:37.794Z,102192.41
2024-05-09T00:09:39.515Z,102195.81
2024-05-09T00:10:41.708Z,102190.44
2024-05-09T00:11:43.583Z,102185.44
2024-05-09T00:12:45.399Z,102193.25
2024-05-09T00:13:47.508Z,102185.97
2024-05-09T00:14:49.374Z,102189.84
2024-05-09T00:15:51.106Z,102190.97
2024-05-09T00:16:52.869Z,102192.31
2024-05-09T00:17:54.852Z,102194.28
2024-05-09T00:18:56.710Z,102190.03
2024-05-09T00:19:58.622Z,102192.00
2024-05-09T00:21:00.488Z,102188.59
2024-05-09T00:22:02.372Z,102188.59
2024-05-09T00:23:04.365Z,102180.50
2024-05-09T00:24:06.237Z,102186.97
2024-05-09T00:25:08.807Z,102188.16
2024-05-09T00:26:10.603Z,102184.25
2024-05-09T00:27:13.444Z,102187.41
2024-05-09T00:28:15.214Z,102190.53
2024-05-09T00:29:17.038Z,102190.28
2024-05-09T00:30:27.761Z,102188.91
2024-05-09T00:31:34.428Z,102193.16
2024-05-09T00:32:36.435Z,102194.00
2024-05-09T00:33:38.435Z,102190.72
2024-05-09T00:34:40.263Z,102188.50
2024-05-09T00:35:42.106Z,102192.75
2024-05-09T00:36:43.828Z,102192.50
2024-05-09T00:37:45.581Z,102189.69
2024-05-09T00:38:47.611Z,102194.09
2024-05-09T00:39:49.341Z,102190.44
2024-05-09T00:40:51.127Z,102189.59
2024-05-09T00:41:52.883Z,102187.41
2024-05-09T00:42:54.662Z,102197.25
2024-05-09T00:43:56.485Z,102189.44
2024-05-09T00:44:58.253Z,102186.38
2024-05-09T00:46:02.003Z,102190.63
2024-05-09T00:47:04.219Z,102180.25
2024-05-09T00:48:08.580Z,102188.16
2024-05-09T00:49:12.796Z,102178.91
2024-05-09T00:50:19.411Z,102188.44
2024-05-09T00:51:24.801Z,102191.47
2024-05-09T00:52:28.345Z,102184.41
2024-05-09T00:53:30.610Z,102180.78
2024-05-09T00:54:33.135Z,102189.44
2024-05-09T00:55:36.504Z,102195.53
2024-05-09T00:56:38.432Z,102189.34
2024-05-09T00:57:40.365Z,102186.53
2024-05-09T00:58:43.057Z,102184.59
2024-05-09T00:59:44.905Z,102186.53
2024-05-09T01:00:47.007Z,102176.72
2024-05-09T01:01:49.525Z,102181.22
2024-05-09T01:02:51.420Z,102185.97
2024-05-09T01:03:53.507Z,102186.53
2024-05-09T01:04:55.687Z,102189.09
2024-05-09T01:05:57.686Z,102185.19
2024-05-09T01:06:59.511Z,102185.19
2024-05-09T01:08:01.441Z,102186.28
2024-05-09T01:09:03.539Z,102188.25
2024-05-09T01:10:09.063Z,102181.81
2024-05-09T01:11:13.614Z,102187.13
2024-05-09T01:12:15.482Z,102186.91
2024-05-09T01:13:17.274Z,102195.03
2024-05-09T01:14:19.054Z,102195.63
2024-05-09T01:15:20.793Z,102191.72
2024-05-09T01:16:22.552Z,102192.31
2024-05-09T01:17:24.601Z,102194.03
2024-05-09T01:18:26.753Z,102199.88
2024-05-09T01:19:30.458Z,102196.47
2024-05-09T01:20:40.843Z,102200.13
2024-05-09T01:21:45.357Z,102193.69
2024-05-09T01:22:47.569Z,102190.63
2024-05-09T01:23:49.332Z,102196.84
2024-05-09T01:24:52.054Z,102195.38
2024-05-09T01:25:53.890Z,102195.03
2024-05-09T01:26:55.663Z,102186.63
2024-05-09T01:27:57.359Z,102185.44
2024-05-09T01:28:59.104Z,102191.91
2024-05-09T01:30:00.888Z,102193.84
2024-05-09T01:31:02.588Z,102187.41
2024-05-09T01:32:04.985Z,102191.28
2024-05-09T01:33:09.283Z,102200.31
2024-05-09T01:34:12.678Z,102190.78
2024-05-09T01:35:14.411Z,102194.19
2024-05-09T01:36:16.168Z,102195.03
2024-05-09T01:37:17.899Z,102191.91
2024-05-09T01:38:19.908Z,102196.66
2024-05-09T01:39:21.692Z,102191.28
2024-05-09T01:40:33.304Z,102191.81
2024-05-09T01:41:39.495Z,102191.81
2024-05-09T01:42:41.307Z,102186.13
2024-05-09T01:43:43.053Z,102190.53
2024-05-09T01:44:45.115Z,102194.19
2024-05-09T01:45:46.828Z,102190.28
2024-05-09T01:46:48.615Z,102191.16
2024-05-09T01:47:50.524Z,102193.69
2024-05-09T01:48:52.563Z,102187.22
2024-05-09T01:49:54.373Z,102185.19
2024-05-09T01:50:56.224Z,102188.50
2024-05-09T01:51:57.984Z,102181.44
2024-05-09T01:52:59.745Z,102185.59
2024-05-09T01:54:02.739Z,102183.41
2024-05-09T01:55:07.426Z,102187.91
2024-05-09T01:56:10.437Z,102186.22
2024-05-09T01:57:12.187Z,102187.06
2024-05-09T01:58:14.062Z,102184.00
2024-05-09T01:59:15.847Z,102194.84
2024-05-09T02:00:26.252Z,102188.16
2024-05-09T02:01:56.004Z,102183.66
2024-05-09T02:02:59.602Z,102192.31
2024-05-09T02:04:01.814Z,102189.44
2024-05-09T02:05:04.067Z,102184.09
2024-05-09T02:06:05.914Z,102192.63
2024-05-09T02:07:07.681Z,102191.47
2024-05-09T02:08:19.549Z,102188.66
2024-05-09T02:09:21.563Z,102181.50
2024-05-09T02:10:30.169Z,102187.72
2024-05-09T02:11:42.643Z,102182.69
2024-05-09T02:12:44.461Z,102172.59
2024-05-09T02:13:46.240Z,102185.75
2024-05-09T02:14:47.975Z,102182.03
2024-05-09T02:15:52.406Z,102179.97
2024-05-09T02:16:54.281Z,102177.41
2024-05-09T02:17:56.352Z,102184.97
2024-05-09T02:18:58.409Z,102183.00
2024-05-09T02:20:00.294Z,102187.53
2024-05-09T02:21:02.170Z,102189.22
2024-05-09T02:22:04.094Z,102185.56
2024-05-09T02:23:06.626Z,102184.28
2024-05-09T02:24:08.737Z,102182.06
2024-05-09T02:25:10.465Z,102186.31
2024-05-09T02:26:12.236Z,102183.28
2024-05-09T02:27:13.972Z,102182.16
2024-05-09T02:28:15.712Z,102179.88
2024-05-09T02:29:17.511Z,102187.31
2024-05-09T02:30:26.396Z,102186.72
2024-05-09T02:31:37.649Z,102182.72
2024-05-09T02:32:39.520Z,102178.25
2024-05-09T02:33:41.463Z,102177.97
2024-05-09T02:34:43.240Z,102175.69
2024-05-09T02:35:45.028Z,102181.28
2024-05-09T02:36:46.807Z,102176.53
2024-05-09T02:37:48.578Z,102181.03
2024-05-09T02:38:50.305Z,102175.44
2024-05-09T02:39:52.034Z,102178.47
2024-05-09T02:40:53.822Z,102176.78
2024-05-09T02:41:55.564Z,102172.03
2024-05-09T02:42:57.262Z,102175.06
2024-05-09T02:43:59.052Z,102175.34
2024-05-09T02:45:00.789Z,102175.25
2024-05-09T02:46:02.500Z,102170.72
2024-05-09T02:47:04.420Z,102179.38
2024-05-09T02:48:07.172Z,102169.31
2024-05-09T02:49:09.130Z,102172.22
2024-05-09T02:50:16.036Z,102181.13
2024-05-09T02:51:18.015Z,102173.72
2024-05-09T02:52:19.730Z,102175.31
2024-05-09T02:53:21.528Z,102177.75
2024-05-09T02:54:23.261Z,102174.84
2024-05-09T02:55:25.572Z,102175.69
2024-05-09T02:56:27.382Z,102186.66
2024-05-09T02:57:29.125Z,102182.41
2024-05-09T02:58:30.833Z,102181.19
2024-05-09T02:59:32.580Z,102187.03
2024-05-09T03:00:39.070Z,102176.59
2024-05-09T03:01:43.374Z,102176.44
2024-05-09T03:02:45.307Z,102178.88
2024-05-09T03:03:48.450Z,102173.28
2024-05-09T03:04:50.356Z,102183.50
2024-05-09T03:05:52.135Z,102178.53
2024-05-09T03:06:53.916Z,102176.81
2024-05-09T03:07:55.643Z,102183.50
2024-05-09T03:08:57.365Z,102179.53
2024-05-09T03:09:59.118Z,102177.81
2024-05-09T03:11:00.852Z,102175.28
2024-05-09T03:12:02.688Z,102181.09
2024-05-09T03:13:13.808Z,102178.78
2024-05-09T03:14:17.271Z,102177.09
2024-05-09T03:15:19.032Z,102178.78
2024-05-09T03:16:20.729Z,102178.78
2024-05-09T03:17:24.074Z,102184.38
2024-05-09T03:18:26.064Z,102180.47
2024-05-09T03:19:27.872Z,102177.69
2024-05-09T03:20:34.217Z,102180.47
2024-05-09T03:21:40.855Z,102179.41
2024-05-09T03:22:42.558Z,102180.47
2024-05-09T03:23:44.370Z,102171.50
2024-05-09T03:24:46.171Z,102178.19
2024-05-09T03:25:48.054Z,102182.56
2024-05-09T03:26:49.809Z,102176.59
2024-05-09T03:27:51.514Z,102180.16
2024-05-09T03:28:53.366Z,102185.97
2024-05-09T03:29:55.103Z,102184.50
2024-05-09T03:30:56.810Z,102180.03
2024-05-09T03:32:00.648Z,102183.31
2024-05-09T03:33:02.784Z,102179.41
2024-05-09T03:34:04.888Z,102181.00
2024-05-09T03:35:07.207Z,102182.97
2024-05-09T03:36:11.213Z,102175.53
2024-05-09T03:37:13.821Z,102184.16
2024-05-09T03:38:15.757Z,102181.38
2024-05-09T03:39:17.629Z,102182.22
2024-05-09T03:40:23.699Z,102179.66
2024-05-09T03:41:28.204Z,102185.50
2024-05-09T03:42:29.938Z,102183.78
2024-05-09T03:43:31.716Z,102189.38
2024-05-09T03:44:33.474Z,102185.16
2024-05-09T03:45:35.241Z,102187.81
2024-05-09T03:46:40.780Z,102185.88
2024-05-09T03:47:42.775Z,102181.59
2024-05-09T03:48:44.937Z,102193.00
2024-05-09T03:49:46.977Z,102194.34
2024-05-09T03:50:48.832Z,102192.16
2024-05-09T03:51:50.585Z,102188.25
2024-05-09T03:52:52.365Z,102192.16
2024-05-09T03:53:54.183Z,102191.53
2024-05-09T03:54:55.909Z,102190.91
2024-05-09T03:55:57.747Z,102183.00
2024-05-09T03:56:59.520Z,102183.50
2024-05-09T03:58:01.265Z,102185.44
2024-05-09T03:59:03.060Z,102188.72
2024-05-09T04:00:07.488Z,102191.25
2024-05-09T04:01:16.663Z,102191.88
2024-05-09T04:02:18.588Z,102192.72
2024-05-09T04:03:20.660Z,102186.78
2024-05-09T04:04:22.726Z,102188.47
2024-05-09T04:05:25.654Z,102186.16
2024-05-09T04:06:28.091Z,102183.13
2024-05-09T04:07:29.804Z,102188.09
2024-05-09T04:08:31.558Z,102182.38
2024-05-09T04:09:33.299Z,102187.59
2024-05-09T04:10:35.599Z,102185.66
2024-05-09T04:11:37.686Z,102184.31
2024-05-09T04:12:39.656Z,102192.44
2024-05-09T04:13:41.416Z,102196.81
2024-05-09T04:14:43.177Z,102196.19
2024-05-09T04:15:44.947Z,102195.34
2024-05-09T04:16:46.704Z,102186.13
2024-05-09T04:17:51.599Z,102193.66
2024-05-09T04:18:53.656Z,102193.66
2024-05-09T04:19:55.626Z,102194.13
2024-05-09T04:20:59.499Z,102194.13
2024-05-09T04:22:01.734Z,102199.78
2024-05-09T04:23:03.565Z,102194.00
2024-05-09T04:24:05.536Z,102200.41
2024-05-09T04:25:07.346Z,102198.00
2024-05-09T04:26:09.309Z,102195.81
2024-05-09T04:27:11.030Z,102200.09
2024-05-09T04:28:13.230Z,102202.88
2024-05-09T04:29:15.065Z,102197.50
2024-05-09T04:30:25.525Z,102203.09
2024-05-09T04:31:36.432Z,102205.41
2024-05-09T04:32:38.269Z,102202.25
2024-05-09T04:33:40.194Z,102201.03
2024-05-09T04:34:42.018Z,102206.38
2024-05-09T04:35:44.168Z,102200.91
2024-05-09T04:36:46.197Z,102199.78
2024-05-09T04:37:49.342Z,102204.28
2024-05-09T04:38:51.055Z,102202.13
2024-05-09T04:39:52.758Z,102200.16
2024-05-09T04:40:54.527Z,102198.25
2024-05-09T04:41:56.455Z,102204.19
2024-05-09T04:42:58.154Z,102195.47
2024-05-09T04:43:59.907Z,102204.28
2024-05-09T04:45:03.464Z,102205.16
2024-05-09T04:46:05.195Z,102198.94
2024-05-09T04:47:06.981Z,102199.56
2024-05-09T04:48:09.126Z,102198.69
2024-05-09T04:49:11.283Z,102203.44
2024-05-09T04:50:20.790Z,102202.50
2024-05-09T04:51:27.174Z,102200.56
2024-05-09T04:52:28.906Z,102200.56
2024-05-09T04:53:30.753Z,102199.47
2024-05-09T04:54:36.288Z,102201.16
2024-05-09T04:55:39.415Z,102203.72
2024-05-09T04:56:41.730Z,102206.28
2024-05-09T04:57:43.465Z,102191.59
2024-05-09T04:58:45.236Z,102199.63
2024-05-09T04:59:46.976Z,102201.94
2024-05-09T05:00:48.747Z,102205.13
2024-05-09T05:01:50.594Z,102208.50
2024-05-09T05:02:52.457Z,102212.19
2024-05-09T05:03:55.969Z,102211.91
2024-05-09T05:04:59.390Z,102216.66
2024-05-09T05:06:01.319Z,102214.47
2024-05-09T05:07:03.187Z,102206.09
2024-05-09T05:08:05.868Z,102208.66
2024-05-09T05:09:07.642Z,102201.13
2024-05-09T05:10:14.878Z,102206.22
2024-05-09T05:11:22.907Z,102207.94
2024-05-09T05:12:43.457Z,102209.63
2024-05-09T05:13:45.227Z,102201.63
2024-05-09T05:14:46.980Z,102209.53
2024-05-09T05:15:55.258Z,102208.78
2024-05-09T05:16:57.046Z,102204.56
2024-05-09T05:17:58.934Z,102207.50
2024-05-09T05:19:00.918Z,102205.06
2024-05-09T05:20:04.092Z,102211.63
2024-05-09T05:21:06.523Z,102208.19
2024-05-09T05:22:08.363Z,102212.59
2024-05-09T05:23:14.905Z,102207.72
2024-05-09T05:24:16.776Z,102211.50
2024-05-09T05:25:18.498Z,102213.53
2024-05-09T05:26:20.620Z,102210.00
2024-05-09T05:27:22.385Z,102215.38
2024-05-09T05:28:24.287Z,102217.69
2024-05-09T05:29:26.049Z,102214.13
2024-05-09T05:30:32.788Z,102212.56
2024-05-09T05:31:36.280Z,102215.13
2024-05-09T05:32:38.227Z,102214.88
2024-05-09T05:33:40.101Z,102213.78
2024-05-09T05:34:41.865Z,102211.38
2024-05-09T05:35:44.200Z,102211.09
2024-05-09T05:36:45.929Z,102216.47
2024-05-09T05:37:47.667Z,102211.47
2024-05-09T05:38:49.598Z,102218.53
2024-05-09T05:39:51.422Z,102212.69
2024-05-09T05:40:53.209Z,102210.00
2024-05-09T05:41:55.327Z,102215.69
2024-05-09T05:42:57.046Z,102214.09
2024-05-09T05:43:58.832Z,102205.91
2024-05-09T05:45:00.665Z,102211.97
2024-05-09T05:46:02.393Z,102209.03
2024-05-09T05:47:04.354Z,102204.97
2024-05-09T05:48:07.851Z,102213.47
2024-05-09T05:49:10.155Z,102219.41
2024-05-09T05:50:20.920Z,102206.00
2024-05-09T05:51:29.330Z,102213.50
2024-05-09T05:52:31.098Z,102212.25
2024-05-09T05:53:33.160Z,102208.44
2024-05-09T05:54:35.021Z,102211.41
2024-05-09T05:55:37.774Z,102204.78
2024-05-09T05:56:39.598Z,102206.84
2024-05-09T05:57:41.365Z,102204.47
2024-05-09T05:58:43.302Z,102202.44
2024-05-09T05:59:45.059Z,102205.16
2024-05-09T06:00:46.873Z,102204.13
2024-05-09T06:01:48.651Z,102202.03
2024-05-09T06:02:50.502Z,102206.31
2024-05-09T06:03:52.404Z,102197.97
2024-05-09T06:04:54.371Z,102202.31
2024-05-09T06:05:56.297Z,102206.03
2024-05-09T06:06:58.100Z,102197.44
2024-05-09T06:07:59.953Z,102201.56
2024-05-09T06:09:01.785Z,102208.47
2024-05-09T06:10:05.325Z,102207.41
2024-05-09T06:11:08.947Z,102214.78
2024-05-09T06:12:10.915Z,102210.59
2024-05-09T06:13:13.633Z,102211.22
2024-05-09T06:14:16.035Z,102212.25
2024-05-09T06:15:17.757Z,102210.22
2024-05-09T06:16:19.459Z,102215.69
2024-05-09T06:17:21.415Z,102209.91
2024-05-09T06:18:23.463Z,102214.00
2024-05-09T06:19:25.489Z,102209.59
2024-05-09T06:20:34.966Z,102204.53
2024-05-09T06:21:39.112Z,102208.50
2024-05-09T06:22:40.820Z,102210.78
2024-05-09T06:23:49.417Z,102204.06
2024-05-09T06:24:51.132Z,102207.72
2024-05-09T06:25:52.892Z,102202.34
2024-05-09T06:26:54.614Z,102211.66
2024-05-09T06:27:56.363Z,102208.59
2024-05-09T06:29:00.399Z,102213.63
2024-05-09T06:30:02.166Z,102210.78
2024-05-09T06:31:03.985Z,102206.22
2024-05-09T06:32:06.176Z,102202.00
2024-05-09T06:33:10.096Z,102203.91
2024-05-09T06:34:13.482Z,102203.97
2024-05-09T06:35:15.424Z,102202.34
2024-05-09T06:36:17.197Z,102199.03
2024-05-09T06:37:18.923Z,102200.56
2024-05-09T06:38:20.748Z,102206.50
2024-05-09T06:39:23.705Z,102201.47
2024-05-09T06:40:29.858Z,102195.00
2024-05-09T06:41:38.138Z,102197.81
2024-05-09T06:42:39.857Z,102192.72
2024-05-09T06:43:41.992Z,102201.69
2024-05-09T06:44:44.275Z,102200.00
2024-05-09T06:45:47.935Z,102204.50
2024-05-09T06:46:50.389Z,102197.19
2024-05-09T06:47:52.362Z,102199.75
2024-05-09T06:48:54.444Z,102198.06
2024-05-09T06:49:56.328Z,102205.94
2024-05-09T06:50:58.079Z,102198.69
2024-05-09T06:51:59.851Z,102195.31
2024-05-09T06:53:01.605Z,102202.63
2024-05-09T06:54:03.486Z,102196.19
2024-05-09T06:55:05.571Z,102187.75
2024-05-09T06:56:07.736Z,102190.03
2024-05-09T06:57:09.507Z,102192.03
2024-05-09T06:58:11.232Z,102201.59
2024-05-09T06:59:13.002Z,102195.13
2024-05-09T07:00:22.806Z,102188.66
2024-05-09T07:01:32.369Z,102193.16
2024-05-09T07:02:34.229Z,102191.19
2024-05-09T07:03:36.214Z,102192.06
2024-05-09T07:04:38.191Z,102184.16
2024-05-09T07:05:40.066Z,102187.84
2024-05-09T07:06:42.299Z,102194.34
2024-05-09T07:07:44.023Z,102193.28
2024-05-09T07:08:46.959Z,102195.66
2024-05-09T07:09:49.678Z,102195.94
2024-05-09T07:10:51.432Z,102196.28
2024-05-09T07:11:53.309Z,102190.06
2024-05-09T07:12:55.122Z,102192.91
2024-05-09T07:13:56.873Z,102190.66
2024-05-09T07:14:58.594Z,102192.06
2024-05-09T07:16:00.383Z,102189.53
2024-05-09T07:17:02.323Z,102191.25
2024-05-09T07:18:22.212Z,102188.44
2024-05-09T07:19:24.131Z,102189.56
2024-05-09T07:20:33.811Z,102191.84
2024-05-09T07:21:36.805Z,102197.19
2024-05-09T07:22:38.502Z,102188.19
2024-05-09T07:23:40.978Z,102196.38
2024-05-09T07:24:43.512Z,102191.00
2024-05-09T07:25:45.404Z,102193.25
2024-05-09T07:26:47.287Z,102188.75
2024-05-09T07:27:49.318Z,102190.44
2024-05-09T07:28:51.021Z,102194.66
2024-05-09T07:29:52.799Z,102188.50
2024-05-09T07:30:54.503Z,102190.44
2024-05-09T07:31:56.434Z,102190.72
2024-05-09T07:32:58.527Z,102189.31
2024-05-09T07:34:01.195Z,102185.66
2024-05-09T07:35:03.051Z,102187.34
2024-05-09T07:36:05.165Z,102193.84
2024-05-09T07:37:12.653Z,102195.84
2024-05-09T07:38:14.728Z,102192.13
2024-05-09T07:39:16.561Z,102192.13
2024-05-09T07:40:28.430Z,102196.94
2024-05-09T07:41:37.370Z,102191.28
2024-05-09T07:42:39.243Z,102193.81
2024-05-09T07:43:40.955Z,102189.88
2024-05-09T07:44:42.881Z,102190.41
2024-05-09T07:45:52.096Z,102185.63
2024-05-09T07:53:30.159Z,102192.97
2024-05-09T07:53:46.566Z,102187.88
2024-05-09T07:54:51.782Z,102184.16
2024-05-09T07:55:55.528Z,102192.59
2024-05-09T07:56:57.836Z,102192.25
2024-05-09T07:57:59.678Z,102190.28
2024-05-09T07:59:01.442Z,102184.09
2024-05-09T08:00:04.533Z,102193.69
2024-05-09T08:01:06.734Z,102179.56
2024-05-09T08:02:09.128Z,102191.19
2024-05-09T08:03:11.127Z,102182.69
2024-05-09T08:04:12.984Z,102182.97
2024-05-09T08:05:14.990Z,102187.16
2024-05-09T08:06:16.766Z,102181.16
2024-05-09T08:07:19.968Z,102189.88
2024-05-09T08:08:22.289Z,102188.72
2024-05-09T08:09:24.020Z,102185.31
2024-05-09T08:10:28.994Z,102188.41
2024-05-09T08:11:32.336Z,102194.91
2024-05-09T08:12:34.110Z,102188.41
2024-05-09T08:13:36.075Z,102187.25
2024-05-09T08:14:37.794Z,102183.28
2024-05-09T08:15:39.570Z,102178.75
2024-05-09T08:16:41.324Z,102188.63
2024-05-09T08:17:43.143Z,102187.50
2024-05-09T08:18:45.037Z,102179.63
2024-05-09T08:19:47.815Z,102180.78
2024-05-09T08:20:52.141Z,102182.44
2024-05-09T08:21:53.861Z,102180.16
2024-05-09T08:22:55.600Z,102185.25
2024-05-09T08:23:57.404Z,102178.44
2024-05-09T08:24:59.139Z,102183.16
2024-05-09T08:26:00.854Z,102178.06
2024-05-09T08:27:02.571Z,102179.72
2024-05-09T08:28:05.112Z,102177.94
2024-05-09T08:29:06.865Z,102177.94
2024-05-09T08:30:15.425Z,102179.06
2024-05-09T08:31:23.328Z,102177.88
2024-05-09T08:32:27.313Z,102184.91
2024-05-09T08:33:32.258Z,102179.53
2024-05-09T08:34:34.118Z,102179.84
2024-05-09T08:35:36.322Z,102182.69
2024-05-09T08:36:39.841Z,102182.94
2024-05-09T08:37:43.621Z,102173.59
2024-05-09T08:38:45.474Z,102177.03
2024-05-09T08:39:47.230Z,102177.56
2024-05-09T08:40:49.491Z,102176.72
2024-05-09T08:41:54.173Z,102175.28
2024-05-09T08:42:57.365Z,102171.91
2024-05-09T08:43:59.104Z,102170.78
2024-05-09T08:45:01.749Z,102170.78
2024-05-09T08:46:04.956Z,102176.41
2024-05-09T08:47:09.240Z,102176.63
2024-05-09T08:48:12.448Z,102171.22
2024-05-09T08:49:16.063Z,102175.44
2024-05-09T08:50:31.429Z,102171.72
2024-05-09T08:51:39.393Z,102172.56
2024-05-09T08:52:41.128Z,102175.41
2024-05-09T08:53:42.951Z,102178.00
2024-05-09T08:54:45.124Z,102170.03
2024-05-09T08:55:47.389Z,102170.91
2024-05-09T08:56:50.102Z,102174.31
2024-05-09T08:57:53.142Z,102158.19
2024-05-09T08:59:00.137Z,102162.69
2024-05-09T09:00:10.102Z,102160.16
2024-05-09T09:01:14.793Z,102163.00
2024-05-09T09:02:19.239Z,102167.75
2024-05-09T09:03:24.875Z,102172.84
2024-05-09T09:04:28.491Z,102170.28
2024-05-09T09:05:31.260Z,102164.59
2024-05-09T09:06:34.691Z,102165.13
2024-05-09T09:07:39.651Z,102160.53
2024-05-09T09:08:41.492Z,102176.00
2024-05-09T09:09:45.655Z,102173.19
2024-05-09T09:10:47.894Z,102157.53
2024-05-09T09:11:49.810Z,102156.16
2024-05-09T09:12:58.681Z,102161.47
2024-05-09T09:14:00.471Z,102163.81
2024-05-09T09:15:02.176Z,102162.06
2024-05-09T09:16:04.453Z,102162.31
2024-05-09T09:17:16.037Z,102165.09
2024-05-09T09:18:18.686Z,102163.28
2024-05-09T09:19:23.250Z,102163.63
2024-05-09T09:20:33.754Z,102163.88
2024-05-09T09:21:38.332Z,102163.75
2024-05-09T09:22:40.087Z,102162.38
2024-05-09T09:23:41.811Z,102166.59
2024-05-09T09:24:43.554Z,102161.56
2024-05-09T09:25:45.590Z,102154.56
2024-05-09T09:26:47.313Z,102164.16
2024-05-09T09:27:49.084Z,102155.03
2024-05-09T09:28:51.628Z,102167.38
2024-05-09T09:29:53.357Z,102163.38
2024-05-09T09:31:01.502Z,102155.44
2024-05-09T09:32:04.764Z,102159.06
2024-05-09T09:33:09.000Z,102156.78
2024-05-09T09:34:10.952Z,102154.16
2024-05-09T09:35:12.812Z,102153.94
2024-05-09T09:36:14.532Z,102149.44
2024-05-09T09:37:23.124Z,102146.00
2024-05-09T09:38:29.387Z,102148.28
2024-05-09T09:39:32.591Z,102146.50
2024-05-09T09:40:42.896Z,102156.41
2024-05-09T09:41:48.829Z,102149.66
2024-05-09T09:42:54.539Z,102146.03
2024-05-09T09:43:57.679Z,102153.28
2024-05-09T09:45:04.836Z,102146.78
2024-05-09T09:46:12.256Z,102152.44
2024-05-09T09:47:15.832Z,102147.84
2024-05-09T09:48:20.053Z,102147.00
2024-05-09T09:49:24.331Z,102150.31
2024-05-09T09:50:33.386Z,102148.22
2024-05-09T09:51:36.947Z,102148.00
2024-05-09T09:52:38.941Z,102155.72
2024-05-09T09:53:42.497Z,102148.66
2024-05-09T09:54:45.596Z,102154.94
2024-05-09T09:55:48.305Z,102145.88
2024-05-09T09:56:51.443Z,102154.38
2024-05-09T09:57:56.171Z,102145.66
2024-05-09T09:58:59.319Z,102150.16
2024-05-09T10:00:01.192Z,102152.50
2024-05-09T10:01:03.153Z,102146.22
2024-05-09T10:02:05.417Z,102147.50
2024-05-09T10:03:07.310Z,102151.97
2024-05-09T10:04:10.460Z,102145.38
2024-05-09T10:05:12.645Z,102151.78
2024-05-09T10:06:15.580Z,102151.16
2024-05-09T10:07:19.204Z,102146.59
2024-05-09T10:08:23.516Z,102156.22
2024-05-09T10:09:25.925Z,102149.88
2024-05-09T10:10:32.391Z,102141.34
2024-05-09T10:11:39.766Z,102147.03
2024-05-09T10:13:07.889Z,102140.97
2024-05-09T10:14:10.244Z,102140.19
2024-05-09T10:15:12.045Z,102144.13
2024-05-09T10:16:21.794Z,102155.78
2024-05-09T10:17:23.804Z,102142.03
2024-05-09T10:18:36.401Z,102145.63
2024-05-09T10:19:38.486Z,102155.19
2024-05-09T10:20:44.770Z,102154.78
2024-05-09T10:21:46.887Z,102151.34
2024-05-09T10:22:50.491Z,102144.38
2024-05-09T10:24:05.895Z,102147.84
2024-05-09T10:25:07.939Z,102143.81
2024-05-09T10:26:09.718Z,102138.63
2024-05-09T10:27:11.457Z,102141.34
2024-05-09T10:28:13.406Z,102138.44
2024-05-09T10:29:18.392Z,102137.59
2024-05-09T10:30:29.853Z,102139.84
2024-05-09T10:31:40.991Z,102141.00
2024-05-09T10:32:44.873Z,102135.00
2024-05-09T10:33:48.945Z,102133.66
2024-05-09T10:35:13.203Z,102134.69
2024-05-09T10:36:21.730Z,102130.00
2024-05-09T10:37:24.670Z,102132.91
2024-05-09T10:38:26.543Z,102134.78
2024-05-09T10:39:35.119Z,102125.63
2024-05-09T10:40:38.038Z,102134.69
2024-05-09T10:41:40.190Z,102124.53
2024-05-09T10:42:42.073Z,102132.94
2024-05-09T10:43:44.055Z,102134.25
2024-05-09T10:44:47.105Z,102122.19
2024-05-09T10:45:49.366Z,102122.00
2024-05-09T10:46:51.347Z,102123.31
2024-05-09T10:47:53.309Z,102123.63
2024-05-09T10:48:55.197Z,102129.31
2024-05-09T10:49:57.196Z,102119.22
2024-05-09T10:50:59.013Z,102116.91
2024-05-09T10:52:03.689Z,102115.41
2024-05-09T10:53:05.509Z,102119.34
2024-05-09T10:54:07.813Z,102108.06
2024-05-09T10:55:09.546Z,102113.75
2024-05-09T10:56:13.604Z,102116.59
2024-05-09T10:57:15.431Z,102103.47
2024-05-09T10:58:17.859Z,102114.19
2024-05-09T10:59:19.654Z,102105.75
2024-05-09T11:00:27.695Z,102103.44
2024-05-09T11:01:35.475Z,102101.56
2024-05-09T11:02:37.331Z,102104.28
2024-05-09T11:03:39.978Z,102100.22
2024-05-09T11:04:42.139Z,102105.59
2024-05-09T11:05:44.346Z,102096.34
2024-05-09T11:06:47.190Z,102087.59
2024-05-09T11:07:49.043Z,102094.22
2024-05-09T11:08:51.335Z,102100.97
2024-05-09T11:09:53.237Z,102100.91
2024-05-09T11:10:56.182Z,102104.94
2024-05-09T11:11:58.135Z,102095.78
2024-05-09T11:12:59.947Z,102104.59
2024-05-09T11:14:14.141Z,102096.81
2024-05-09T11:15:17.245Z,102094.81
2024-05-09T11:16:20.896Z,102094.59
2024-05-09T11:17:23.148Z,102100.09
2024-05-09T11:18:28.185Z,102088.72
2024-05-09T11:19:38.558Z,102092.50
2024-05-09T11:20:40.434Z,102088.72
2024-05-09T11:21:51.263Z,102089.50
2024-05-09T11:22:53.018Z,102085.28
2024-05-09T11:23:55.023Z,102085.81
2024-05-09T11:24:56.902Z,102088.03
2024-05-09T11:25:59.167Z,102083.66
2024-05-09T11:27:05.191Z,102078.84
2024-05-09T11:28:07.268Z,102087.16
2024-05-09T11:29:09.016Z,102085.78
2024-05-09T11:30:26.649Z,102084.41
2024-05-09T11:31:35.095Z,102077.97
2024-05-09T11:32:37.558Z,102074.03
2024-05-09T11:33:47.682Z,102073.19
2024-05-09T11:34:49.503Z,102073.00
2024-05-09T11:35:51.354Z,102077.22
2024-05-09T11:36:53.282Z,102066.41
2024-05-09T11:37:55.161Z,102075.16
2024-05-09T11:38:56.883Z,102070.03
2024-05-09T11:39:58.638Z,102080.75
2024-05-09T11:41:00.402Z,102074.84
2024-05-09T11:42:02.439Z,102075.25
2024-05-09T11:43:05.886Z,102070.41
2024-05-09T11:44:07.651Z,102075.47
2024-05-09T11:45:09.345Z,102074.72
2024-05-09T11:46:11.197Z,102079.44
2024-05-09T11:47:13.098Z,102077.16
2024-05-09T11:48:15.122Z,102072.69
2024-05-09T11:49:17.190Z,102071.00
2024-05-09T11:50:27.047Z,102066.06
2024-05-09T11:51:32.052Z,102068.78
2024-05-09T11:53:35.388Z,102065.75
2024-05-09T11:55:38.889Z,102060.69
2024-05-09T11:56:40.612Z,102064.38
2024-05-09T11:57:42.424Z,102058.69
2024-05-09T11:58:44.205Z,102059.72
2024-05-09T11:59:45.914Z,102059.59
2024-05-09T12:00:47.772Z,102066.06
2024-05-09T12:01:49.802Z,102066.38
2024-05-09T12:02:52.669Z,102054.78
2024-05-09T12:03:54.989Z,102062.38
2024-05-09T12:04:56.874Z,102053.50
2024-05-09T12:05:58.798Z,102041.63
2024-05-09T12:07:00.808Z,102046.75
2024-05-09T12:08:02.644Z,102047.00
2024-05-09T12:09:04.568Z,102052.38